createdAt,value
2017-07-30T00:00:28.544Z,18.70
2017-07-30T00:03:02.473Z,18.70
2017-07-30T00:05:36.323Z,18.70
2017-07-30T00:08:11.213Z,18.60
2017-07-30T00:10:45.103Z,18.60
2017-07-30T00:13:18.934Z,18.60
2017-07-30T00:15:52.718Z,18.60
2017-07-30T00:18:26.924Z,18.60
2017-07-30T00:21:00.741Z,18.60
2017-07-30T00:23:34.563Z,18.50
2017-07-30T00:26:08.415Z,18.50
2017-07-30T00:28:42.331Z,18.50
2017-07-30T00:31:16.418Z,18.50
2017-07-30T00:33:50.415Z,18.30
2017-07-30T00:36:24.236Z,18.10
2017-07-30T00:38:58.140Z,18.20
2017-07-30T00:41:32.924Z,18.20
2017-07-30T00:44:06.878Z,18.20
2017-07-30T00:46:40.703Z,18.20
2017-07-30T00:49:15.655Z,18.20
2017-07-30T00:51:50.351Z,18.10
2017-07-30T00:54:24.298Z,18.10
2017-07-30T00:56:58.073Z,18.00
2017-07-30T00:59:31.874Z,18.00
2017-07-30T01:02:06.077Z,17.90
2017-07-30T01:04:40.085Z,18.00
2017-07-30T01:07:14.334Z,17.90
2017-07-30T01:09:48.517Z,18.00
2017-07-30T01:12:22.467Z,17.60
2017-07-30T01:14:56.333Z,17.70
2017-07-30T01:17:30.331Z,17.70
2017-07-30T01:20:04.986Z,17.70
2017-07-30T01:22:38.925Z,17.70
2017-07-30T01:25:12.841Z,17.70
2017-07-30T01:27:47.205Z,17.60
2017-07-30T01:30:20.976Z,17.60
2017-07-30T01:32:57.075Z,17.60
2017-07-30T01:35:31.290Z,17.60
2017-07-30T01:38:05.273Z,17.40
2017-07-30T01:40:39.613Z,17.40
2017-07-30T01:43:14.501Z,17.50
2017-07-30T01:45:49.154Z,17.50
2017-07-30T01:48:23.137Z,17.50
2017-07-30T01:50:57.043Z,17.40
2017-07-30T01:53:31.656Z,17.30
2017-07-30T01:56:05.482Z,17.30
2017-07-30T01:58:40.543Z,17.20
2017-07-30T02:01:14.624Z,17.20
2017-07-30T02:03:48.638Z,17.10
2017-07-30T02:06:22.865Z,17.20
2017-07-30T02:08:57.561Z,17.30
2017-07-30T02:11:31.527Z,17.30
2017-07-30T02:14:05.487Z,17.30
2017-07-30T02:16:39.223Z,17.30
2017-07-30T02:19:13.305Z,17.30
2017-07-30T02:21:47.256Z,17.30
2017-07-30T02:24:21.796Z,17.30
2017-07-30T02:26:55.688Z,17.30
2017-07-30T02:29:29.750Z,17.30
2017-07-30T02:35:01.024Z,17.30
2017-07-30T02:37:35.105Z,17.20
2017-07-30T02:40:09.583Z,17.20
2017-07-30T02:42:43.399Z,17.10
2017-07-30T02:45:17.362Z,17.10
2017-07-30T02:47:51.469Z,17.00
2017-07-30T02:50:25.523Z,17.00
2017-07-30T02:52:59.612Z,16.90
2017-07-30T02:55:34.645Z,16.90
2017-07-30T02:58:08.677Z,16.90
2017-07-30T03:00:42.993Z,16.80
2017-07-30T03:03:16.996Z,16.80
2017-07-30T03:05:51.121Z,16.80
2017-07-30T03:08:25.861Z,16.90
2017-07-30T03:10:59.844Z,16.90
2017-07-30T03:13:33.907Z,16.90
2017-07-30T03:16:07.846Z,16.80
2017-07-30T03:18:42.093Z,16.70
2017-07-30T03:21:16.290Z,16.70
2017-07-30T03:23:50.881Z,16.60
2017-07-30T03:26:25.105Z,16.70
2017-07-30T03:28:59.839Z,16.80
2017-07-30T03:31:34.368Z,16.80
2017-07-30T03:34:08.538Z,16.80
2017-07-30T03:36:42.516Z,16.70
2017-07-30T03:39:16.367Z,16.70
2017-07-30T03:41:51.199Z,16.70
2017-07-30T03:44:26.519Z,16.70
2017-07-30T03:47:01.118Z,16.50
2017-07-30T03:49:35.081Z,16.50
2017-07-30T03:52:10.044Z,16.40
2017-07-30T03:54:44.189Z,16.50
2017-07-30T03:57:18.395Z,16.30
2017-07-30T03:59:52.937Z,16.50
2017-07-30T04:02:26.752Z,16.50
2017-07-30T04:05:00.799Z,16.50
2017-07-30T04:07:34.835Z,16.50
2017-07-30T04:10:08.654Z,16.50
2017-07-30T04:12:42.719Z,16.40
2017-07-30T04:15:16.517Z,16.50
2017-07-30T04:17:51.426Z,16.70
2017-07-30T04:20:25.355Z,16.70
2017-07-30T04:22:59.911Z,16.70
2017-07-30T04:25:33.960Z,16.70
2017-07-30T04:28:08.046Z,16.70
2017-07-30T04:30:42.087Z,16.80
2017-07-30T04:33:16.085Z,16.80
2017-07-30T04:35:50.187Z,16.80
2017-07-30T04:38:24.150Z,16.80
2017-07-30T04:40:59.196Z,16.70
2017-07-30T04:43:32.976Z,16.70
2017-07-30T04:46:06.755Z,16.70
2017-07-30T04:48:40.907Z,16.70
2017-07-30T04:51:14.667Z,16.60
2017-07-30T04:53:48.826Z,16.40
2017-07-30T04:56:22.489Z,16.50
2017-07-30T04:58:56.901Z,16.80
2017-07-30T05:01:31.324Z,16.80
2017-07-30T05:04:05.640Z,16.80
2017-07-30T05:06:40.221Z,16.90
2017-07-30T05:09:14.058Z,16.90
2017-07-30T05:11:47.931Z,16.90
2017-07-30T05:14:22.358Z,16.80
2017-07-30T05:16:56.100Z,16.80
2017-07-30T05:19:30.090Z,16.90
2017-07-30T05:22:04.749Z,16.90
2017-07-30T05:24:38.868Z,16.90
2017-07-30T05:27:12.959Z,17.00
2017-07-30T05:29:47.325Z,17.00
2017-07-30T05:32:21.262Z,17.00
2017-07-30T05:34:55.288Z,17.10
2017-07-30T05:37:29.433Z,17.20
2017-07-30T05:40:04.084Z,17.20
2017-07-30T05:42:38.534Z,17.30
2017-07-30T05:45:12.297Z,17.20
2017-07-30T05:47:46.311Z,17.40
2017-07-30T05:50:21.640Z,17.40
2017-07-30T05:52:55.781Z,17.50
2017-07-30T05:55:30.462Z,17.50
2017-07-30T05:58:05.295Z,17.50
2017-07-30T06:00:39.237Z,17.40
2017-07-30T06:03:13.270Z,17.50
2017-07-30T06:05:47.161Z,17.50
2017-07-30T06:08:21.135Z,17.50
2017-07-30T06:10:55.882Z,17.50
2017-07-30T06:13:29.759Z,17.60
2017-07-30T06:16:04.058Z,17.60
2017-07-30T06:18:37.896Z,17.70
2017-07-30T06:21:12.047Z,17.70
2017-07-30T06:23:46.060Z,17.70
2017-07-30T06:26:19.986Z,17.70
2017-07-30T06:28:54.294Z,17.70
2017-07-30T06:31:28.313Z,17.70
2017-07-30T06:34:02.235Z,17.70
2017-07-30T06:36:36.616Z,17.80
2017-07-30T06:39:10.368Z,17.80
2017-07-30T06:41:44.379Z,17.70
2017-07-30T06:44:18.316Z,17.70
2017-07-30T06:46:54.693Z,17.70
2017-07-30T06:49:28.691Z,17.80
2017-07-30T06:52:02.633Z,17.90
2017-07-30T06:54:36.455Z,17.90
2017-07-30T06:57:10.336Z,17.80
2017-07-30T06:59:44.386Z,17.80
2017-07-30T07:02:19.077Z,17.80
2017-07-30T07:04:52.998Z,17.80
2017-07-30T07:07:27.502Z,17.80
2017-07-30T07:10:01.913Z,17.70
2017-07-30T07:12:36.536Z,17.80
2017-07-30T07:15:10.404Z,17.70
2017-07-30T07:17:44.107Z,17.80
2017-07-30T07:20:18.898Z,17.80
2017-07-30T07:22:52.480Z,17.80
2017-07-30T07:25:26.694Z,17.90
2017-07-30T07:28:02.585Z,17.90
2017-07-30T07:30:36.376Z,18.00
2017-07-30T07:33:10.853Z,18.00
2017-07-30T07:35:46.181Z,18.00
2017-07-30T07:38:21.233Z,18.10
2017-07-30T07:40:55.469Z,18.20
2017-07-30T07:43:30.213Z,18.20
2017-07-30T07:46:05.716Z,18.30
2017-07-30T07:48:39.739Z,18.40
2017-07-30T07:51:13.746Z,18.30
2017-07-30T07:53:48.007Z,18.40
2017-07-30T07:56:22.091Z,18.50
2017-07-30T07:58:55.984Z,18.60
2017-07-30T08:01:30.286Z,18.60
2017-07-30T08:04:04.173Z,18.70
2017-07-30T08:06:38.150Z,18.90
2017-07-30T08:09:12.135Z,18.90
2017-07-30T08:11:46.042Z,19.00
2017-07-30T08:14:19.941Z,19.10
2017-07-30T08:16:53.761Z,19.20
2017-07-30T08:19:28.392Z,19.30
2017-07-30T08:22:02.171Z,19.40
2017-07-30T08:24:36.196Z,19.50
2017-07-30T08:27:10.317Z,19.70
2017-07-30T08:29:44.667Z,19.90
2017-07-30T08:32:18.545Z,19.90
2017-07-30T08:34:52.606Z,19.90
2017-07-30T08:37:27.002Z,20.10
2017-07-30T08:40:01.066Z,20.40
2017-07-30T08:42:35.250Z,20.40
2017-07-30T08:45:09.071Z,20.50
2017-07-30T08:47:45.141Z,20.90
2017-07-30T08:50:18.965Z,20.90
2017-07-30T08:52:54.258Z,21.20
2017-07-30T08:55:28.814Z,21.30
2017-07-30T08:58:03.554Z,21.20
2017-07-30T09:00:38.190Z,21.20
2017-07-30T09:03:12.766Z,21.30
2017-07-30T09:05:47.854Z,21.40
2017-07-30T09:08:22.056Z,21.40
2017-07-30T09:10:55.974Z,21.70
2017-07-30T09:13:30.986Z,21.80
2017-07-30T09:16:05.524Z,22.00
2017-07-30T09:18:39.549Z,22.10
2017-07-30T09:21:14.563Z,22.40
2017-07-30T09:23:50.221Z,22.30
2017-07-30T09:26:25.068Z,22.30
2017-07-30T09:28:59.571Z,22.80
2017-07-30T09:31:34.723Z,22.80
2017-07-30T09:34:09.900Z,22.70
2017-07-30T09:36:47.830Z,23.10
2017-07-30T09:39:25.758Z,23.30
2017-07-30T09:42:00.241Z,23.60
2017-07-30T09:44:35.009Z,23.70
2017-07-30T09:47:09.251Z,23.90
2017-07-30T09:49:43.281Z,23.80
2017-07-30T09:52:17.248Z,23.80
2017-07-30T09:54:52.148Z,24.10
2017-07-30T09:57:37.991Z,24.00
2017-07-30T10:00:17.325Z,24.10
2017-07-30T10:02:59.113Z,24.00
2017-07-30T10:05:37.753Z,24.30
2017-07-30T10:08:19.588Z,24.30
2017-07-30T10:10:55.951Z,24.30
2017-07-30T10:13:33.927Z,24.30
2017-07-30T10:16:08.042Z,24.30
2017-07-30T10:18:45.017Z,24.50
2017-07-30T10:21:20.339Z,24.50
2017-07-30T10:23:54.160Z,24.50
2017-07-30T10:26:28.028Z,24.80
2017-07-30T10:29:01.855Z,25.00
2017-07-30T10:31:36.004Z,25.20
2017-07-30T10:34:10.240Z,25.30
2017-07-30T10:36:45.513Z,25.50
2017-07-30T10:39:20.607Z,25.60
2017-07-30T10:41:56.620Z,25.60
2017-07-30T10:44:32.849Z,26.00
2017-07-30T10:47:13.325Z,26.00
2017-07-30T10:49:49.002Z,26.40
2017-07-30T10:52:27.474Z,26.40
2017-07-30T10:55:03.755Z,26.30
2017-07-30T10:57:37.771Z,26.30
2017-07-30T11:00:11.892Z,26.30
2017-07-30T11:02:46.081Z,26.30
2017-07-30T11:05:20.830Z,26.20
2017-07-30T11:07:57.294Z,26.40
2017-07-30T11:10:33.691Z,26.70
2017-07-30T11:13:10.519Z,26.70
2017-07-30T11:15:51.581Z,26.60
2017-07-30T11:18:26.208Z,26.60
2017-07-30T11:21:02.084Z,26.70
2017-07-30T11:23:36.375Z,26.70
2017-07-30T11:26:10.659Z,26.90
2017-07-30T11:28:44.923Z,26.90
2017-07-30T11:31:19.968Z,26.90
2017-07-30T11:33:54.841Z,27.10
2017-07-30T11:36:29.328Z,27.20
2017-07-30T11:39:03.541Z,27.30
2017-07-30T11:41:37.255Z,27.20
2017-07-30T11:44:12.896Z,27.30
2017-07-30T11:46:47.460Z,27.30
2017-07-30T11:49:22.986Z,27.50
2017-07-30T11:51:57.224Z,27.60
2017-07-30T11:54:31.226Z,27.70
2017-07-30T11:57:05.374Z,27.70
2017-07-30T11:59:40.087Z,27.70
2017-07-30T12:02:13.792Z,27.60
2017-07-30T12:04:47.490Z,27.70
2017-07-30T12:07:21.666Z,27.80
2017-07-30T12:09:55.760Z,28.10
2017-07-30T12:12:30.224Z,27.90
2017-07-30T12:15:03.812Z,27.90
2017-07-30T12:17:38.373Z,28.00
2017-07-30T12:20:12.101Z,28.00
2017-07-30T12:22:45.880Z,28.00
2017-07-30T12:25:20.995Z,28.30
2017-07-30T12:27:56.821Z,28.20
2017-07-30T12:30:31.793Z,28.30
2017-07-30T12:33:07.361Z,28.30
2017-07-30T12:35:42.164Z,28.00
2017-07-30T12:38:19.469Z,28.00
2017-07-30T12:40:53.915Z,28.10
2017-07-30T12:43:28.330Z,28.10
2017-07-30T12:46:03.234Z,28.20
2017-07-30T12:48:37.154Z,28.30
2017-07-30T12:51:11.784Z,28.10
2017-07-30T12:53:46.512Z,28.20
2017-07-30T12:56:25.721Z,28.20
2017-07-30T12:58:59.795Z,28.20
2017-07-30T13:01:34.909Z,28.30
2017-07-30T13:04:08.775Z,28.30
2017-07-30T13:06:43.264Z,28.10
2017-07-30T13:09:17.367Z,28.10
2017-07-30T13:11:51.488Z,28.50
2017-07-30T13:14:25.354Z,28.30
2017-07-30T13:16:59.929Z,28.20
2017-07-30T13:19:34.622Z,28.10
2017-07-30T13:22:08.279Z,28.10
2017-07-30T13:24:42.024Z,28.30
2017-07-30T13:27:19.073Z,28.30
2017-07-30T13:29:53.620Z,28.30
2017-07-30T13:32:28.375Z,28.40
2017-07-30T13:35:02.520Z,28.70
2017-07-30T13:37:37.893Z,28.60
2017-07-30T13:40:12.419Z,28.70
2017-07-30T13:42:47.068Z,28.70
2017-07-30T13:45:21.625Z,28.70
2017-07-30T13:47:57.561Z,29.00
2017-07-30T13:50:31.747Z,29.00
2017-07-30T13:53:09.398Z,29.20
2017-07-30T13:55:43.601Z,29.40
2017-07-30T13:58:17.683Z,29.30
2017-07-30T14:00:52.105Z,29.20
2017-07-30T14:03:26.672Z,29.10
2017-07-30T14:06:01.941Z,29.40
2017-07-30T14:08:36.165Z,29.00
2017-07-30T14:11:10.609Z,29.30
2017-07-30T14:13:46.321Z,29.60
2017-07-30T14:16:22.295Z,29.70
2017-07-30T14:18:57.246Z,29.40
2017-07-30T14:21:33.468Z,29.40
2017-07-30T14:24:09.785Z,29.50
2017-07-30T14:26:46.383Z,29.70
2017-07-30T14:29:21.732Z,29.60
2017-07-30T14:31:56.804Z,29.60
2017-07-30T14:34:31.474Z,29.60
2017-07-30T14:37:05.875Z,29.60
2017-07-30T14:39:42.984Z,29.60
2017-07-30T14:42:20.932Z,29.30
2017-07-30T14:44:55.527Z,28.90
2017-07-30T14:47:32.444Z,29.00
2017-07-30T14:50:06.537Z,29.00
2017-07-30T14:52:40.525Z,28.90
2017-07-30T14:55:14.556Z,28.80
2017-07-30T14:57:49.860Z,29.00
2017-07-30T15:00:25.516Z,29.00
2017-07-30T15:03:03.703Z,29.30
2017-07-30T15:05:38.891Z,29.30
2017-07-30T15:08:18.955Z,29.70
2017-07-30T15:10:57.625Z,29.30
2017-07-30T15:13:33.299Z,29.10
2017-07-30T15:29:04.909Z,29.30
2017-07-30T15:31:39.084Z,29.60
2017-07-30T15:34:13.416Z,29.60
2017-07-30T15:36:47.222Z,29.60
2017-07-30T15:42:21.850Z,29.20
2017-07-30T15:44:56.317Z,29.10
2017-07-30T15:47:32.317Z,29.00
2017-07-30T15:50:09.476Z,28.70
2017-07-30T15:52:44.546Z,28.60
2017-07-30T15:55:18.888Z,28.60
2017-07-30T15:57:53.609Z,28.50
2017-07-30T16:00:27.254Z,28.50
2017-07-30T16:03:05.942Z,28.60
2017-07-30T16:05:41.555Z,28.60
2017-07-30T16:08:16.632Z,28.70
2017-07-30T16:10:50.629Z,28.80
2017-07-30T16:13:24.451Z,28.70
2017-07-30T16:16:03.531Z,28.80
2017-07-30T16:18:40.150Z,28.80
2017-07-30T16:21:15.181Z,28.80
2017-07-30T16:23:51.787Z,28.70
2017-07-30T16:26:28.436Z,28.60
2017-07-30T16:29:02.700Z,28.60
2017-07-30T16:31:39.973Z,28.50
2017-07-30T16:34:15.430Z,28.40
2017-07-30T16:36:51.042Z,28.20
2017-07-30T16:39:25.705Z,28.00
2017-07-30T16:42:02.030Z,27.80
2017-07-30T16:44:40.938Z,27.80
2017-07-30T16:47:15.941Z,27.70
2017-07-30T16:49:50.992Z,27.40
2017-07-30T16:52:26.983Z,27.30
2017-07-30T16:55:01.585Z,27.20
2017-07-30T16:57:38.351Z,26.90
2017-07-30T17:00:12.376Z,26.90
2017-07-30T17:02:46.513Z,26.80
2017-07-30T17:05:23.928Z,26.70
2017-07-30T17:07:58.012Z,26.60
2017-07-30T17:10:32.019Z,26.40
2017-07-30T17:13:06.716Z,25.40
2017-07-30T17:15:41.567Z,25.40
2017-07-30T17:18:17.941Z,24.70
2017-07-30T17:20:52.772Z,23.10
2017-07-30T17:23:28.140Z,22.60
2017-07-30T17:26:04.042Z,22.50
2017-07-30T17:28:40.656Z,21.60
2017-07-30T17:31:16.633Z,21.10
2017-07-30T17:34:05.874Z,20.90
2017-07-30T17:36:39.897Z,21.30
2017-07-30T17:39:13.941Z,22.50
2017-07-30T17:41:49.175Z,22.90
2017-07-30T17:44:24.145Z,21.70
2017-07-30T17:46:59.096Z,21.10
2017-07-30T17:49:37.980Z,20.30
2017-07-30T17:52:19.659Z,19.90
2017-07-30T17:55:00.018Z,19.60
2017-07-30T17:57:56.597Z,19.60
2017-07-30T18:00:39.848Z,19.70
2017-07-30T18:03:24.638Z,19.90
2017-07-30T18:06:15.863Z,19.40
2017-07-30T18:11:49.893Z,19.50
2017-07-30T18:14:25.595Z,20.50
2017-07-30T18:16:59.365Z,20.40
2017-07-30T18:19:36.356Z,20.20
2017-07-30T18:22:11.149Z,20.10
2017-07-30T18:24:50.149Z,20.20
2017-07-30T18:27:25.592Z,20.60
2017-07-30T18:30:03.322Z,20.50
2017-07-30T18:35:38.183Z,21.30
2017-07-30T18:38:12.131Z,21.50
2017-07-30T18:40:46.075Z,20.20
2017-07-30T18:43:28.118Z,20.10
2017-07-30T18:46:04.538Z,20.60
2017-07-30T18:48:39.531Z,20.80
2017-07-30T18:51:16.113Z,21.10
2017-07-30T18:53:51.602Z,21.00
2017-07-30T18:56:26.316Z,21.10
2017-07-30T18:59:01.188Z,20.80
2017-07-30T19:01:38.892Z,20.30
2017-07-30T19:04:13.600Z,20.60
2017-07-30T19:06:48.176Z,20.80
2017-07-30T19:09:23.326Z,21.00
2017-07-30T19:11:59.771Z,21.10
2017-07-30T19:14:33.954Z,20.80
2017-07-30T19:17:12.429Z,20.50
2017-07-30T19:19:48.223Z,20.60
2017-07-30T19:22:24.360Z,20.60
2017-07-30T19:25:03.588Z,20.60
2017-07-30T19:27:39.739Z,20.70
2017-07-30T19:30:14.755Z,20.70
2017-07-30T19:35:47.542Z,20.40
2017-07-30T19:38:21.643Z,20.10
2017-07-30T19:43:37.640Z,19.50
2017-07-30T19:46:13.962Z,19.70
2017-07-30T19:48:51.474Z,19.90
2017-07-30T19:51:26.345Z,20.20
2017-07-30T19:57:00.419Z,20.30
2017-07-30T19:59:34.436Z,20.30
2017-07-30T20:02:09.370Z,20.20
2017-07-30T20:04:43.406Z,20.10
2017-07-30T20:07:21.424Z,20.10
2017-07-30T20:09:57.091Z,20.20
2017-07-30T20:12:32.012Z,20.20
2017-07-30T20:15:07.722Z,20.10
2017-07-30T20:17:41.743Z,20.10
2017-07-30T20:20:16.662Z,19.40
2017-07-30T20:25:47.997Z,19.50
2017-07-30T20:28:21.982Z,19.70
2017-07-30T20:30:55.864Z,19.80
2017-07-30T20:33:31.019Z,20.00
2017-07-30T20:36:05.711Z,20.00
2017-07-30T20:38:39.810Z,19.90
2017-07-30T20:41:15.733Z,19.60
2017-07-30T20:43:50.963Z,19.60
2017-07-30T20:46:26.293Z,18.60
2017-07-30T20:49:03.330Z,18.60
2017-07-30T20:51:38.206Z,18.80
2017-07-30T20:54:16.833Z,19.20
2017-07-30T20:57:00.495Z,19.40
2017-07-30T20:59:37.141Z,19.50
2017-07-30T21:02:10.885Z,19.50
2017-07-30T21:04:46.432Z,19.50
2017-07-30T21:07:23.620Z,19.50
2017-07-30T21:09:57.738Z,19.50
2017-07-30T21:12:31.487Z,19.50
2017-07-30T21:15:07.219Z,19.40
2017-07-30T21:17:42.284Z,19.40
2017-07-30T21:20:18.357Z,19.40
2017-07-30T21:22:52.278Z,19.30
2017-07-30T21:25:26.475Z,19.30
2017-07-30T21:28:02.645Z,19.30
2017-07-30T21:30:37.271Z,19.20
2017-07-30T21:33:13.495Z,19.20
2017-07-30T21:35:48.546Z,19.10
2017-07-30T21:38:23.840Z,19.10
2017-07-30T21:40:59.226Z,19.00
2017-07-30T21:43:37.702Z,19.00
2017-07-30T21:46:17.305Z,19.10
2017-07-30T21:48:55.947Z,19.10
2017-07-30T21:51:32.869Z,19.10
2017-07-30T21:54:12.839Z,19.10
2017-07-30T21:56:50.883Z,19.00
2017-07-30T21:59:29.575Z,19.00
2017-07-30T22:05:01.895Z,19.00
2017-07-30T22:07:49.602Z,19.00
2017-07-30T22:10:31.251Z,18.90
2017-07-30T22:13:09.307Z,18.90
2017-07-30T22:15:47.707Z,18.60
2017-07-30T22:18:24.560Z,18.60
2017-07-30T22:20:59.485Z,18.60
2017-07-30T22:23:46.391Z,18.60
2017-07-30T22:26:20.514Z,18.60
2017-07-30T22:28:55.723Z,18.50
2017-07-30T22:31:33.024Z,18.40
2017-07-30T22:34:08.676Z,18.50
2017-07-30T22:39:43.014Z,18.50
2017-07-30T22:42:18.320Z,18.50
2017-07-30T22:45:05.415Z,18.50
2017-07-30T22:47:42.883Z,18.20
2017-07-30T22:53:17.031Z,18.00
2017-07-30T22:58:50.941Z,18.20
2017-07-30T23:01:35.335Z,18.10
2017-07-30T23:04:18.901Z,18.10
2017-07-30T23:06:58.025Z,18.10
2017-07-30T23:09:32.891Z,18.10
2017-07-30T23:12:08.428Z,18.00
2017-07-30T23:14:44.069Z,18.10
2017-07-30T23:17:22.654Z,18.10
2017-07-30T23:22:51.305Z,17.60
2017-07-30T23:25:29.392Z,17.50
2017-07-30T23:28:05.728Z,17.10
2017-07-30T23:30:41.545Z,17.10
2017-07-30T23:33:20.909Z,17.10
2017-07-30T23:35:57.882Z,17.30
2017-07-30T23:38:33.418Z,17.40
2017-07-30T23:41:11.031Z,17.50
2017-07-30T23:43:50.474Z,17.40
2017-07-30T23:51:58.926Z,17.10
2017-07-30T23:54:33.902Z,17.10
2017-07-30T23:57:11.121Z,17.60
2017-07-30T23:59:54.495Z,17.60
